Cheshire, Connecticut
Current Conditions -  °F | °C
As of 2:53 AM on Friday 24 Oct 2014 (Local Time) from KMMK Reporting Station
Light Rain Light Rain  
Wind Chill: 50°   Ceiling: 2700
Heat Index: 50°   Visibility: 9mi
Dew Point: 44°   Wind: 12mph
Humidity: 80%   Direction: 320°NW
Pressure: 29.72"   Gusts: 21mph
Location:  41.5°N, 72.9°W
Report Text: KMMK 240653Z AUTO 32010G18KT 9SM -RA BKN027 BKN037 OVC060 10/07 A2972 RMK AO2 RAE02B18E30B48 SLP064 P0000 T01000067 TSNO
Loading
Personal Weather Stations






























Interactive Weather Map
Tropical Storm Tracking
New forecast layout! Learn more

10-Day Weather Forecast

Advertisements
Track Severe Weather on mobile